Time;durP1;ratioP1;P1;durP2;ratioP2;P2;SDS_P1;SDS_P2;PMS_P1;PMS_P2;Temp;Humidity;BMP_temperature;BMP_pressure;BME280_temperature;BME280_humidity;BME280_pressure;Samples;Min_cycle;Max_cycle;Signal;HPM_P1;HPM_P2
2023/12/12 00:02:06;;;;;;;7.88;1.90;;;27.50;62.80;;;;;;5019235;28;20366;-81
2023/12/12 00:04:34;;;;;;;4.60;1.63;;;27.60;62.60;;;;;;5023749;28;20419;-88
2023/12/12 00:07:01;;;;;;;7.65;1.90;;;27.70;62.70;;;;;;5033503;28;20017;-87
2023/12/12 00:09:28;;;;;;;12.88;1.67;;;27.70;62.70;;;;;;5018264;28;20449;-84
2023/12/12 00:11:59;;;;;;;6.25;1.35;;;27.70;62.40;;;;;;5035839;28;20104;-80
2023/12/12 00:14:26;;;;;;;6.90;1.55;;;27.80;60.70;;;;;;5023844;28;20029;-84
2023/12/12 00:16:53;;;;;;;8.82;1.70;;;27.80;59.30;;;;;;5024999;28;20022;-87
2023/12/12 00:19:21;;;;;;;5.55;1.45;;;27.90;59.90;;;;;;5019132;28;20030;-82
2023/12/12 00:21:48;;;;;;;5.38;1.55;;;27.90;59.70;;;;;;5016926;28;20022;-79
2023/12/12 00:24:16;;;;;;;4.88;1.33;;;27.90;60.00;;;;;;5010921;28;20041;-81
2023/12/12 00:26:43;;;;;;;6.07;1.40;;;27.90;60.40;;;;;;5012550;28;20026;-82
2023/12/12 00:29:10;;;;;;;5.53;1.50;;;27.90;59.00;;;;;;5021183;28;20048;-85
2023/12/12 00:31:38;;;;;;;5.85;1.63;;;28.00;58.80;;;;;;5013061;28;20026;-84
2023/12/12 00:34:09;;;;;;;5.40;1.38;;;28.00;59.10;;;;;;5024388;28;20032;-87
2023/12/12 00:36:36;;;;;;;9.73;1.70;;;28.10;59.30;;;;;;5037078;28;20223;-82
2023/12/12 00:39:04;;;;;;;7.55;1.80;;;28.20;59.30;;;;;;5036816;28;20365;-86
2023/12/12 00:41:35;;;;;;;6.85;1.60;;;28.30;58.40;;;;;;5023957;28;20088;-84
2023/12/12 00:44:02;;;;;;;5.75;1.50;;;28.30;57.50;;;;;;5015657;28;20515;-86
2023/12/12 00:46:30;;;;;;;9.85;2.13;;;28.30;58.10;;;;;;5029406;28;20481;-88
2023/12/12 00:48:57;;;;;;;6.32;1.52;;;28.30;58.30;;;;;;4997484;28;20052;-77
2023/12/12 00:51:26;;;;;;;9.27;1.65;;;28.30;57.10;;;;;;5016887;28;20469;-84
2023/12/12 00:53:53;;;;;;;4.47;1.35;;;28.30;57.10;;;;;;5035036;28;20025;-82
2023/12/12 00:56:20;;;;;;;5.00;1.60;;;28.40;57.80;;;;;;5032139;28;20052;-86
2023/12/12 00:58:49;;;;;;;7.30;1.67;;;28.50;57.50;;;;;;5024205;28;20100;-85
2023/12/12 01:01:16;;;;;;;5.50;1.25;;;28.60;57.40;;;;;;5027377;28;20033;-86
2023/12/12 01:03:44;;;;;;;8.07;1.65;;;28.60;57.80;;;;;;5015488;28;20033;-83
2023/12/12 01:06:23;;;;;;;4.63;1.40;;;28.60;57.40;;;;;;5018602;28;20029;-79
2023/12/12 01:08:50;;;;;;;7.43;1.50;;;28.60;56.70;;;;;;5032674;28;20029;-88
2023/12/12 01:11:18;;;;;;;7.68;1.45;;;28.70;56.50;;;;;;5032861;28;20025;-85
2023/12/12 01:13:46;;;;;;;5.57;1.40;;;28.60;56.90;;;;;;5029204;28;20383;-86
2023/12/12 01:16:17;;;;;;;9.13;1.58;;;28.60;56.90;;;;;;5026634;28;20432;-78
2023/12/12 01:18:44;;;;;;;6.53;1.98;;;28.60;56.80;;;;;;5030396;28;20135;-88
2023/12/12 01:21:12;;;;;;;6.65;1.63;;;28.70;57.10;;;;;;5008188;28;20268;-88
2023/12/12 01:23:53;;;;;;;8.10;1.63;;;28.80;57.60;;;;;;5014366;28;20020;-86
2023/12/12 01:26:23;;;;;;;8.13;1.60;;;28.80;58.10;;;;;;5030400;28;20026;-79
2023/12/12 01:28:52;;;;;;;5.55;1.45;;;28.90;57.90;;;;;;5017250;28;20060;-84
2023/12/12 01:31:20;;;;;;;5.60;1.60;;;28.90;58.60;;;;;;5012717;28;20108;-88
2023/12/12 01:33:51;;;;;;;7.85;1.55;;;29.00;58.00;;;;;;5024642;28;20362;-87
2023/12/12 01:36:18;;;;;;;8.68;1.45;;;29.00;57.90;;;;;;5013603;28;20076;-83
2023/12/12 01:38:46;;;;;;;7.53;1.48;;;29.00;57.20;;;;;;5007789;28;20037;-79
2023/12/12 01:41:14;;;;;;;5.78;1.48;;;29.00;57.40;;;;;;4998131;28;20025;-85
2023/12/12 01:43:41;;;;;;;9.15;1.65;;;29.00;56.40;;;;;;5015722;28;20056;-78
2023/12/12 01:46:12;;;;;;;6.43;1.50;;;29.00;56.50;;;;;;5026216;28;20121;-86
2023/12/12 01:48:40;;;;;;;7.25;1.42;;;29.10;57.50;;;;;;5033478;28;20120;-79
2023/12/12 01:51:08;;;;;;;6.07;1.55;;;29.10;58.00;;;;;;5022061;28;20030;-77
2023/12/12 01:53:44;;;;;;;4.78;1.55;;;29.10;57.90;;;;;;5020194;28;20033;-79
2023/12/12 01:56:13;;;;;;;6.70;1.80;;;29.10;56.70;;;;;;5014275;28;20037;-78
2023/12/12 01:58:43;;;;;;;8.35;1.90;;;29.10;57.00;;;;;;4996665;28;20057;-79
2023/12/12 02:01:12;;;;;;;6.32;1.70;;;29.10;56.70;;;;;;5030289;28;20030;-82
2023/12/12 02:03:40;;;;;;;11.20;1.70;;;29.20;56.20;;;;;;5024563;28;20103;-79
2023/12/12 02:06:09;;;;;;;7.97;1.63;;;29.20;56.00;;;;;;5016381;28;20087;-83
2023/12/12 02:08:37;;;;;;;6.28;1.58;;;29.30;56.40;;;;;;5008756;28;20042;-87
2023/12/12 02:11:04;;;;;;;6.85;1.60;;;29.20;56.50;;;;;;5013895;28;20029;-83
2023/12/12 02:13:32;;;;;;;9.25;1.65;;;29.20;56.80;;;;;;5013574;28;20833;-85
2023/12/12 02:15:59;;;;;;;6.88;1.60;;;29.20;57.30;;;;;;5011896;28;20025;-86
2023/12/12 02:18:26;;;;;;;7.93;1.73;;;29.30;57.30;;;;;;5010322;28;20057;-80
2023/12/12 02:20:54;;;;;;;7.03;1.85;;;29.30;57.40;;;;;;5007492;28;20656;-85
2023/12/12 02:23:21;;;;;;;6.95;1.90;;;29.30;56.20;;;;;;5015434;28;20057;-85
2023/12/12 02:25:48;;;;;;;7.43;1.77;;;29.30;56.50;;;;;;5020710;28;20045;-78
2023/12/12 02:28:17;;;;;;;10.65;2.00;;;29.30;56.60;;;;;;5013102;28;20038;-80
2023/12/12 02:30:44;;;;;;;4.68;1.42;;;29.30;56.70;;;;;;5007081;28;20040;-84
2023/12/12 02:33:11;;;;;;;7.05;1.60;;;29.20;56.20;;;;;;5016395;28;20155;-81
2023/12/12 02:35:39;;;;;;;4.50;1.33;;;29.20;56.70;;;;;;5033329;28;20037;-82
2023/12/12 02:38:06;;;;;;;6.03;1.63;;;29.10;57.10;;;;;;5033317;28;20087;-85
2023/12/12 02:40:34;;;;;;;6.82;1.35;;;29.20;56.60;;;;;;5023934;28;20022;-84
2023/12/12 02:43:01;;;;;;;9.82;1.75;;;29.20;56.10;;;;;;5011638;28;20017;-83
2023/12/12 02:45:29;;;;;;;4.80;1.58;;;29.10;56.50;;;;;;5030524;28;20072;-78
2023/12/12 02:47:56;;;;;;;4.05;1.30;;;29.10;56.40;;;;;;5017634;28;20033;-86
2023/12/12 02:50:23;;;;;;;6.82;1.17;;;29.10;56.30;;;;;;5018961;28;20033;-84
2023/12/12 02:52:51;;;;;;;6.40;1.45;;;29.10;56.20;;;;;;5009335;28;20050;-85
2023/12/12 02:55:21;;;;;;;5.45;1.48;;;29.10;56.20;;;;;;5022194;28;20025;-78
2023/12/12 02:57:48;;;;;;;6.03;1.40;;;29.10;55.40;;;;;;5012397;28;20040;-86
2023/12/12 03:00:16;;;;;;;8.00;1.63;;;29.20;55.70;;;;;;5012804;28;20466;-86
2023/12/12 03:02:43;;;;;;;5.10;1.58;;;29.30;55.90;;;;;;5012912;28;20029;-85
2023/12/12 03:05:11;;;;;;;7.75;1.63;;;29.30;55.30;;;;;;5012472;28;20037;-80
2023/12/12 03:07:38;;;;;;;6.78;1.52;;;29.30;55.70;;;;;;5012192;28;20864;-87
2023/12/12 03:10:06;;;;;;;7.60;1.60;;;29.30;56.10;;;;;;5021461;28;20053;-82
2023/12/12 03:12:33;;;;;;;5.13;1.60;;;29.30;55.20;;;;;;5012001;28;20031;-88
2023/12/12 03:15:01;;;;;;;6.50;1.80;;;29.30;55.00;;;;;;5018913;28;20465;-85
2023/12/12 03:17:28;;;;;;;6.30;1.52;;;29.40;55.50;;;;;;5028759;28;20034;-82
2023/12/12 03:19:56;;;;;;;7.22;1.83;;;29.40;55.30;;;;;;5016744;28;20025;-83
2023/12/12 03:22:23;;;;;;;8.63;1.60;;;29.40;54.60;;;;;;5018276;28;20045;-88
2023/12/12 03:24:50;;;;;;;6.03;1.40;;;29.50;54.40;;;;;;5032549;28;20025;-82
2023/12/12 03:27:18;;;;;;;5.13;1.42;;;29.50;53.80;;;;;;5029382;28;20034;-87
2023/12/12 03:29:45;;;;;;;6.63;1.50;;;29.50;54.10;;;;;;5029305;28;20488;-87
2023/12/12 03:32:14;;;;;;;4.45;1.27;;;29.60;54.10;;;;;;5033218;28;20048;-88
2023/12/12 03:34:41;;;;;;;3.88;1.52;;;29.60;54.50;;;;;;5034340;28;20026;-85
2023/12/12 03:37:09;;;;;;;6.28;1.40;;;29.50;54.30;;;;;;5041015;28;20026;-87
2023/12/12 03:39:37;;;;;;;7.97;1.60;;;29.60;54.00;;;;;;5014575;28;20626;-85
2023/12/12 03:42:05;;;;;;;4.97;1.40;;;29.60;53.70;;;;;;5032498;28;20025;-87
2023/12/12 03:44:32;;;;;;;5.82;1.50;;;29.60;54.00;;;;;;5033340;28;20067;-86
2023/12/12 03:47:00;;;;;;;6.10;1.40;;;29.60;54.00;;;;;;5030428;28;20116;-81
2023/12/12 03:49:28;;;;;;;4.43;1.23;;;29.70;53.50;;;;;;5020327;28;20044;-83
2023/12/12 03:51:55;;;;;;;10.50;1.55;;;29.70;53.30;;;;;;5026805;28;20021;-85
2023/12/12 03:54:22;;;;;;;6.88;1.45;;;29.70;53.50;;;;;;5026877;28;20524;-83
2023/12/12 03:56:51;;;;;;;4.65;1.15;;;29.70;52.20;;;;;;5022591;28;20025;-84
2023/12/12 03:59:18;;;;;;;7.18;1.50;;;29.70;52.60;;;;;;5024779;28;20025;-80
2023/12/12 04:01:49;;;;;;;7.68;2.08;;;29.80;53.70;;;;;;5011975;28;20030;-80
2023/12/12 04:04:18;;;;;;;6.65;1.63;;;29.80;53.50;;;;;;5018662;28;20531;-87
2023/12/12 04:06:48;;;;;;;5.55;1.63;;;29.80;53.80;;;;;;5032567;28;20017;-82
2023/12/12 04:09:16;;;;;;;6.38;1.65;;;29.80;53.80;;;;;;5030467;28;20044;-81
2023/12/12 04:11:43;;;;;;;6.03;1.20;;;29.80;53.60;;;;;;5029997;28;20112;-83
2023/12/12 04:14:15;;;;;;;10.88;1.63;;;29.80;53.00;;;;;;5028693;28;20116;-86
2023/12/12 04:16:43;;;;;;;9.90;1.42;;;29.80;53.20;;;;;;5031439;28;20105;-85
2023/12/12 04:19:10;;;;;;;5.75;1.60;;;29.70;53.40;;;;;;5028338;28;20018;-87
2023/12/12 04:21:37;;;;;;;8.80;1.45;;;29.60;54.20;;;;;;5011700;28;20026;-85
2023/12/12 04:24:06;;;;;;;3.90;1.38;;;29.50;54.00;;;;;;5011801;28;20033;-87
2023/12/12 04:26:36;;;;;;;6.47;1.70;;;29.30;54.00;;;;;;5013156;28;20128;-88
2023/12/12 04:29:04;;;;;;;5.15;1.50;;;29.30;54.30;;;;;;5012985;28;20387;-83
2023/12/12 04:31:33;;;;;;;7.63;1.42;;;29.20;54.80;;;;;;5028926;28;20029;-84
2023/12/12 04:34:00;;;;;;;7.28;1.90;;;29.10;54.90;;;;;;5018986;28;20022;-83
2023/12/12 04:36:27;;;;;;;8.18;1.30;;;29.10;55.80;;;;;;5029866;28;20065;-82
2023/12/12 04:38:55;;;;;;;6.82;1.67;;;29.10;55.90;;;;;;5036195;28;20025;-86
2023/12/12 04:41:22;;;;;;;5.95;1.38;;;29.10;56.50;;;;;;5032945;28;20107;-86
2023/12/12 04:43:49;;;;;;;6.38;1.88;;;29.10;55.90;;;;;;5035810;28;20045;-83
2023/12/12 04:46:20;;;;;;;6.55;1.70;;;29.10;55.80;;;;;;5018348;28;20477;-88
2023/12/12 04:48:48;;;;;;;6.70;1.50;;;29.10;56.80;;;;;;5015511;28;20045;-85
2023/12/12 04:51:15;;;;;;;6.65;1.60;;;29.00;57.00;;;;;;5014516;28;20022;-85
2023/12/12 04:53:43;;;;;;;7.57;1.55;;;29.00;57.00;;;;;;5031189;28;20025;-78
2023/12/12 04:56:10;;;;;;;7.95;1.45;;;28.90;57.30;;;;;;5030197;28;20025;-83
2023/12/12 04:58:37;;;;;;;5.32;1.48;;;28.90;57.10;;;;;;5035151;28;20480;-87
2023/12/12 05:01:06;;;;;;;7.45;1.63;;;28.80;57.70;;;;;;5026217;28;20115;-88
2023/12/12 05:03:33;;;;;;;8.02;1.85;;;28.80;58.00;;;;;;5014200;28;20040;-85
2023/12/12 05:06:04;;;;;;;7.07;1.40;;;28.80;58.60;;;;;;5017785;28;20038;-86
2023/12/12 05:08:31;;;;;;;4.50;1.52;;;28.90;58.40;;;;;;5015314;28;20025;-83
2023/12/12 05:10:59;;;;;;;8.00;1.77;;;28.90;58.00;;;;;;5020376;28;20025;-81
2023/12/12 05:13:26;;;;;;;6.22;1.30;;;28.90;58.10;;;;;;5035524;28;20064;-84
2023/12/12 05:15:54;;;;;;;3.80;1.30;;;28.90;58.10;;;;;;5031032;28;20037;-85
2023/12/12 05:18:21;;;;;;;6.32;1.55;;;28.90;58.20;;;;;;5016200;28;20022;-78
2023/12/12 05:20:49;;;;;;;7.70;1.50;;;28.90;58.40;;;;;;5018086;28;20026;-78
2023/12/12 05:23:17;;;;;;;7.60;1.55;;;28.90;58.70;;;;;;5000160;28;20040;-75
2023/12/12 05:25:45;;;;;;;5.90;1.60;;;28.80;58.90;;;;;;5014380;28;20088;-82
2023/12/12 05:28:16;;;;;;;7.60;1.42;;;28.80;59.10;;;;;;5015125;28;20015;-87
2023/12/12 05:30:44;;;;;;;6.45;1.52;;;28.80;59.10;;;;;;5016065;28;20363;-87
2023/12/12 05:33:12;;;;;;;8.50;1.65;;;28.80;59.00;;;;;;5015300;28;20021;-85
2023/12/12 05:35:40;;;;;;;6.97;1.75;;;28.80;59.10;;;;;;5015383;28;20113;-80
2023/12/12 05:38:07;;;;;;;7.68;1.50;;;28.70;58.70;;;;;;5018789;28;20038;-82
2023/12/12 05:40:35;;;;;;;7.13;1.65;;;28.80;58.90;;;;;;5019761;28;20028;-82
2023/12/12 05:43:03;;;;;;;5.18;1.60;;;28.80;58.40;;;;;;5015848;28;20519;-87
2023/12/12 05:45:30;;;;;;;6.50;1.50;;;28.80;58.50;;;;;;5022828;28;20022;-84
2023/12/12 05:47:58;;;;;;;10.25;1.45;;;28.80;58.10;;;;;;5037607;28;20018;-77
2023/12/12 05:50:26;;;;;;;4.88;1.55;;;28.80;58.20;;;;;;5024391;28;20048;-81
2023/12/12 05:52:53;;;;;;;6.03;1.63;;;28.80;58.40;;;;;;5019408;28;20449;-86
2023/12/12 05:55:20;;;;;;;8.52;1.70;;;28.90;58.60;;;;;;5027952;28;20061;-82
2023/12/12 05:57:48;;;;;;;7.85;1.95;;;29.00;58.70;;;;;;5016386;28;20105;-85
2023/12/12 06:00:18;;;;;;;5.93;1.40;;;29.10;58.80;;;;;;5021272;28;20061;-76
2023/12/12 06:02:46;;;;;;;5.75;1.38;;;29.20;58.70;;;;;;5023895;28;20026;-77
2023/12/12 06:05:13;;;;;;;7.05;1.30;;;29.20;58.50;;;;;;5023059;28;20033;-77
2023/12/12 06:07:43;;;;;;;6.60;1.50;;;29.20;58.70;;;;;;5015402;28;20041;-76
2023/12/12 06:10:11;;;;;;;6.07;1.75;;;29.20;58.50;;;;;;5034204;28;20757;-76
2023/12/12 06:12:38;;;;;;;8.75;1.73;;;29.20;58.80;;;;;;5040554;28;20052;-76
2023/12/12 06:15:07;;;;;;;7.35;1.13;;;29.20;58.80;;;;;;5042786;28;20064;-77
2023/12/12 06:17:36;;;;;;;4.55;1.35;;;29.20;59.00;;;;;;5043997;28;20014;-79
2023/12/12 06:20:08;;;;;;;6.30;1.60;;;29.20;58.80;;;;;;5030096;28;20034;-79
2023/12/12 06:22:36;;;;;;;11.02;1.60;;;29.30;58.40;;;;;;5021692;28;20018;-79
2023/12/12 06:25:06;;;;;;;6.72;1.60;;;29.20;58.50;;;;;;5023443;28;20029;-87
2023/12/12 06:27:33;;;;;;;6.25;1.50;;;29.20;58.70;;;;;;5033697;28;20035;-78
2023/12/12 06:30:01;;;;;;;7.25;1.40;;;29.20;58.60;;;;;;5034120;28;20034;-80
2023/12/12 06:32:28;;;;;;;4.72;1.50;;;29.20;58.40;;;;;;5033411;28;20071;-79
2023/12/12 06:34:56;;;;;;;4.90;1.40;;;29.20;58.50;;;;;;5015811;28;20029;-83
2023/12/12 06:37:23;;;;;;;6.65;1.55;;;29.20;58.60;;;;;;5017263;28;20026;-78
2023/12/12 06:39:50;;;;;;;7.93;1.50;;;29.10;58.90;;;;;;5013211;28;20029;-85
2023/12/12 06:42:22;;;;;;;8.70;1.55;;;29.10;58.90;;;;;;5013625;28;20504;-82
2023/12/12 06:44:50;;;;;;;6.43;1.90;;;29.10;59.10;;;;;;5013571;28;20041;-81
2023/12/12 06:47:18;;;;;;;7.18;1.42;;;29.10;59.00;;;;;;5015779;28;20022;-83
2023/12/12 06:49:45;;;;;;;4.57;1.40;;;29.00;59.20;;;;;;5012838;28;20076;-86
2023/12/12 06:52:13;;;;;;;5.93;1.67;;;29.10;59.90;;;;;;5013518;28;20022;-86
2023/12/12 06:54:40;;;;;;;8.38;2.00;;;29.00;60.20;;;;;;5013494;28;20053;-87
2023/12/12 06:57:08;;;;;;;8.48;1.60;;;29.00;60.20;;;;;;5012922;28;20030;-86
2023/12/12 06:59:35;;;;;;;7.30;1.70;;;28.90;60.00;;;;;;5033012;28;20100;-87
2023/12/12 07:02:08;;;;;;;7.65;1.77;;;28.90;59.90;;;;;;5027939;28;20034;-88
2023/12/12 07:04:36;;;;;;;7.10;1.70;;;28.80;60.00;;;;;;5032751;28;20080;-86
2023/12/12 07:07:04;;;;;;;6.90;1.88;;;28.80;59.70;;;;;;5032977;28;20488;-83
2023/12/12 07:09:33;;;;;;;6.18;1.67;;;28.80;59.80;;;;;;5013612;28;20493;-86
2023/12/12 07:12:04;;;;;;;7.53;1.90;;;28.80;59.90;;;;;;5013083;28;20026;-81
2023/12/12 07:14:32;;;;;;;7.10;1.80;;;28.90;59.50;;;;;;5033050;28;20025;-86
2023/12/12 07:17:00;;;;;;;9.65;1.73;;;29.00;59.50;;;;;;5032705;28;20018;-86
2023/12/12 07:19:28;;;;;;;9.75;1.88;;;29.00;59.80;;;;;;5029768;28;20030;-79
2023/12/12 07:21:55;;;;;;;6.65;1.88;;;29.00;60.10;;;;;;5020301;28;20022;-82
2023/12/12 07:24:23;;;;;;;7.40;2.03;;;29.00;59.80;;;;;;5015809;28;20017;-84
2023/12/12 07:26:51;;;;;;;4.55;1.40;;;29.00;60.10;;;;;;5032564;28;20021;-81
2023/12/12 07:29:19;;;;;;;4.35;1.40;;;28.90;60.30;;;;;;5032567;28;20109;-82
2023/12/12 07:31:50;;;;;;;6.80;1.92;;;28.80;60.60;;;;;;5032202;28;20358;-87
2023/12/12 07:34:17;;;;;;;6.75;1.90;;;28.80;60.90;;;;;;5010422;28;20384;-86
2023/12/12 07:36:45;;;;;;;8.45;1.95;;;28.60;61.40;;;;;;5019009;28;20024;-85
2023/12/12 07:39:13;;;;;;;10.38;1.80;;;28.50;61.60;;;;;;5032802;28;20024;-84
2023/12/12 07:41:40;;;;;;;6.72;2.00;;;28.30;62.20;;;;;;5029112;28;20073;-78
2023/12/12 07:44:08;;;;;;;6.40;1.58;;;28.10;62.60;;;;;;5010897;28;20048;-84
2023/12/12 07:46:39;;;;;;;6.07;1.70;;;28.00;63.00;;;;;;5016821;28;20929;-81
2023/12/12 07:49:07;;;;;;;7.88;2.05;;;27.90;63.50;;;;;;5006348;28;20060;-79
2023/12/12 07:51:34;;;;;;;9.40;2.28;;;27.90;63.80;;;;;;5009731;28;20050;-81
2023/12/12 07:54:06;;;;;;;7.75;2.38;;;27.80;64.10;;;;;;5011102;28;20500;-84
2023/12/12 07:56:33;;;;;;;5.95;1.85;;;27.80;64.20;;;;;;5011506;28;20025;-81
2023/12/12 07:59:00;;;;;;;10.60;2.13;;;27.70;64.60;;;;;;5011932;28;20122;-76
2023/12/12 08:01:29;;;;;;;7.25;2.03;;;27.60;64.50;;;;;;5009670;28;20391;-85
2023/12/12 08:03:56;;;;;;;4.80;1.38;;;27.50;64.80;;;;;;5009783;28;20038;-77
2023/12/12 08:06:26;;;;;;;5.38;1.65;;;27.40;65.00;;;;;;5011557;28;20431;-80
2023/12/12 08:08:54;;;;;;;8.98;1.80;;;27.30;65.00;;;;;;5012772;28;20030;-82
2023/12/12 08:11:24;;;;;;;5.05;1.30;;;27.30;65.10;;;;;;5019258;28;20030;-83
2023/12/12 08:13:51;;;;;;;7.15;1.65;;;27.20;65.30;;;;;;5012443;28;20026;-78
2023/12/12 08:16:19;;;;;;;7.90;1.85;;;27.10;65.50;;;;;;5015014;28;20018;-83
2023/12/12 08:18:49;;;;;;;6.70;1.50;;;27.00;65.50;;;;;;5020315;28;20440;-79
2023/12/12 08:21:20;;;;;;;9.35;1.60;;;26.90;65.80;;;;;;5010949;28;20073;-78
2023/12/12 08:23:48;;;;;;;9.77;1.70;;;26.80;66.00;;;;;;5014253;28;20026;-87
2023/12/12 08:26:16;;;;;;;8.23;1.63;;;26.80;65.80;;;;;;5013390;28;20060;-79
2023/12/12 08:28:43;;;;;;;7.30;2.20;;;26.70;66.00;;;;;;5016374;28;20041;-87
2023/12/12 08:31:10;;;;;;;6.90;1.80;;;26.70;66.20;;;;;;5015315;28;20041;-86
2023/12/12 08:33:38;;;;;;;5.97;1.67;;;26.60;66.50;;;;;;5005657;28;20022;-80
2023/12/12 08:36:06;;;;;;;4.88;1.40;;;26.60;66.70;;;;;;5014765;28;20058;-80
2023/12/12 08:38:33;;;;;;;4.95;1.52;;;26.60;66.50;;;;;;5014477;28;20428;-84
2023/12/12 08:41:01;;;;;;;8.88;2.20;;;26.40;66.90;;;;;;5014522;28;20071;-79
2023/12/12 08:43:29;;;;;;;6.80;2.13;;;26.40;67.10;;;;;;5025301;28;20132;-85
2023/12/12 08:45:56;;;;;;;5.35;1.90;;;26.30;67.50;;;;;;5013878;28;20493;-80
2023/12/12 08:48:24;;;;;;;6.05;1.90;;;26.30;67.70;;;;;;5004341;28;20038;-82
2023/12/12 08:50:51;;;;;;;9.35;2.60;;;26.30;68.10;;;;;;5024740;28;20396;-85
2023/12/12 08:53:20;;;;;;;6.53;2.55;;;26.20;68.30;;;;;;5015653;28;20092;-82
2023/12/12 08:55:48;;;;;;;6.32;1.70;;;26.20;68.40;;;;;;5023672;28;20477;-84
2023/12/12 08:58:15;;;;;;;6.35;1.98;;;26.10;68.70;;;;;;5018948;28;20539;-82
2023/12/12 09:00:43;;;;;;;9.65;1.85;;;26.10;69.10;;;;;;5012623;28;20057;-79
2023/12/12 09:03:10;;;;;;;7.78;1.67;;;26.00;69.30;;;;;;5016146;28;20037;-85
2023/12/12 09:05:38;;;;;;;6.82;1.70;;;26.00;69.40;;;;;;5014805;28;20103;-84
2023/12/12 09:08:05;;;;;;;7.15;1.80;;;25.90;69.70;;;;;;5024193;28;20032;-84
2023/12/12 09:10:32;;;;;;;4.47;1.58;;;25.90;69.70;;;;;;5021265;28;20049;-83
2023/12/12 09:13:00;;;;;;;6.28;1.63;;;25.90;69.80;;;;;;5024040;28;20020;-85
2023/12/12 09:15:27;;;;;;;7.40;1.77;;;25.80;69.90;;;;;;5016804;28;20037;-85
2023/12/12 09:17:55;;;;;;;4.55;1.38;;;25.90;70.20;;;;;;5022872;28;20080;-85
2023/12/12 09:20:22;;;;;;;5.57;1.65;;;25.80;70.10;;;;;;5032818;28;20044;-83
2023/12/12 09:22:49;;;;;;;7.43;1.75;;;25.80;70.20;;;;;;5019325;28;20485;-81
2023/12/12 09:25:17;;;;;;;5.18;1.50;;;25.80;70.30;;;;;;5014360;28;20072;-81
2023/12/12 09:27:47;;;;;;;5.85;1.70;;;25.70;70.30;;;;;;5022858;28;20029;-85
2023/12/12 09:30:15;;;;;;;4.43;1.33;;;25.70;70.40;;;;;;5025273;28;20030;-87
2023/12/12 09:32:52;;;;;;;6.13;1.48;;;25.70;70.40;;;;;;5016130;28;20025;-83
2023/12/12 09:35:20;;;;;;;5.82;1.33;;;25.60;70.50;;;;;;5012036;28;20060;-84
2023/12/12 09:37:47;;;;;;;6.35;1.52;;;25.60;70.70;;;;;;5013597;28;20018;-81
2023/12/12 09:40:15;;;;;;;4.00;1.35;;;25.50;70.80;;;;;;5010535;28;20026;-80
2023/12/12 09:42:51;;;;;;;6.30;1.40;;;25.50;70.90;;;;;;5014129;28;20026;-81
2023/12/12 09:45:21;;;;;;;5.30;1.25;;;25.50;70.60;;;;;;5019964;28;20032;-86
2023/12/12 09:47:52;;;;;;;7.85;1.75;;;25.50;70.90;;;;;;5027429;28;20017;-85
2023/12/12 09:50:31;;;;;;;11.70;1.90;;;25.40;71.00;;;;;;5003164;28;20129;-86
2023/12/12 09:53:01;;;;;;;10.10;1.40;;;25.40;71.20;;;;;;5011841;28;20029;-81
2023/12/12 09:55:29;;;;;;;6.68;1.45;;;25.40;71.30;;;;;;5015826;28;20025;-79
2023/12/12 09:57:57;;;;;;;6.18;1.40;;;25.40;71.10;;;;;;5028329;28;20034;-78
2023/12/12 10:00:24;;;;;;;11.52;1.92;;;25.30;71.30;;;;;;5020328;28;20034;-83
2023/12/12 10:02:56;;;;;;;8.27;2.00;;;25.30;71.50;;;;;;5014684;28;20021;-79
2023/12/12 10:05:24;;;;;;;6.95;1.98;;;25.20;71.70;;;;;;5011024;28;20054;-80
2023/12/12 10:07:51;;;;;;;5.68;1.30;;;25.20;71.90;;;;;;5013663;28;20160;-80
2023/12/12 10:10:19;;;;;;;7.18;1.52;;;25.20;71.90;;;;;;5020422;28;20473;-82
2023/12/12 10:12:47;;;;;;;9.07;1.75;;;25.20;72.00;;;;;;5013249;28;20421;-85
2023/12/12 10:15:27;;;;;;;3.70;1.27;;;25.20;72.10;;;;;;5015084;28;20022;-84
2023/12/12 10:17:59;;;;;;;6.57;1.17;;;25.20;72.30;;;;;;5024055;28;20028;-80
2023/12/12 10:20:28;;;;;;;6.18;1.38;;;25.20;72.30;;;;;;5028127;28;20033;-79
2023/12/12 10:22:59;;;;;;;12.85;1.60;;;25.20;72.50;;;;;;5009941;28;20441;-81
2023/12/12 10:25:34;;;;;;;3.78;1.17;;;25.20;72.50;;;;;;5010064;28;20037;-80
2023/12/12 10:28:02;;;;;;;6.97;1.40;;;25.20;72.50;;;;;;5026783;28;20346;-82
2023/12/12 10:30:32;;;;;;;5.43;1.60;;;25.10;72.50;;;;;;5011104;28;20107;-81
2023/12/12 10:33:00;;;;;;;4.97;1.25;;;25.10;72.70;;;;;;5010010;28;20072;-81
2023/12/12 10:35:28;;;;;;;8.98;1.45;;;25.10;72.90;;;;;;5010632;28;20022;-82
2023/12/12 10:37:55;;;;;;;7.68;1.70;;;25.00;73.00;;;;;;5012952;28;20077;-83
2023/12/12 10:40:23;;;;;;;7.38;1.83;;;25.00;73.00;;;;;;5012012;28;20024;-82
2023/12/12 10:42:51;;;;;;;4.18;1.33;;;25.00;73.30;;;;;;5020038;28;20018;-80
2023/12/12 10:45:22;;;;;;;5.13;1.45;;;25.00;73.20;;;;;;5008644;28;20126;-78
2023/12/12 10:47:54;;;;;;;6.03;1.40;;;25.00;73.50;;;;;;5011545;28;20037;-79
2023/12/12 10:50:23;;;;;;;7.70;1.95;;;25.00;73.30;;;;;;5012160;28;20528;-86
2023/12/12 10:52:51;;;;;;;7.30;1.80;;;25.00;73.50;;;;;;5010716;28;20488;-77
2023/12/12 10:55:19;;;;;;;5.53;1.38;;;25.00;73.50;;;;;;5010780;28;20029;-83
2023/12/12 10:57:47;;;;;;;5.25;1.38;;;24.90;73.60;;;;;;5011414;28;20025;-76
2023/12/12 11:00:17;;;;;;;5.60;1.60;;;25.00;73.70;;;;;;5010774;28;20018;-76
2023/12/12 11:02:45;;;;;;;5.93;1.85;;;24.90;73.80;;;;;;5007168;28;20034;-76
2023/12/12 11:05:14;;;;;;;4.70;1.55;;;24.90;73.70;;;;;;5016464;28;20411;-85
2023/12/12 11:07:45;;;;;;;7.45;1.85;;;24.90;73.70;;;;;;5011697;28;20141;-77
2023/12/12 11:10:14;;;;;;;7.05;1.65;;;24.90;73.70;;;;;;5013521;28;20140;-78
2023/12/12 11:12:52;;;;;;;6.72;1.50;;;25.00;73.30;;;;;;5011635;28;20025;-77
2023/12/12 11:15:21;;;;;;;6.80;1.63;;;24.90;73.50;;;;;;5008088;28;20088;-78
2023/12/12 11:17:50;;;;;;;6.55;1.58;;;24.90;73.30;;;;;;5010922;28;20033;-77
2023/12/12 11:20:18;;;;;;;6.95;1.27;;;24.90;73.70;;;;;;5011581;28;20057;-77
2023/12/12 11:22:55;;;;;;;5.28;1.83;;;24.80;73.60;;;;;;5016136;28;20025;-77
2023/12/12 11:25:28;;;;;;;5.70;1.67;;;24.80;73.70;;;;;;5009781;28;20038;-77
2023/12/12 11:27:58;;;;;;;4.78;1.40;;;24.80;73.70;;;;;;5012140;28;20018;-77
2023/12/12 11:30:37;;;;;;;8.38;2.15;;;24.70;73.70;;;;;;5010461;28;20041;-82
2023/12/12 11:33:07;;;;;;;4.28;1.50;;;24.80;73.90;;;;;;5011822;28;20025;-81
2023/12/12 11:35:34;;;;;;;6.03;1.48;;;24.80;74.10;;;;;;5010399;28;20412;-76
2023/12/12 11:38:06;;;;;;;5.78;1.50;;;24.80;74.00;;;;;;5011418;28;20449;-77
2023/12/12 11:40:34;;;;;;;5.68;1.20;;;24.70;73.90;;;;;;5011846;28;20030;-77
2023/12/12 11:43:19;;;;;;;6.40;1.52;;;24.70;74.20;;;;;;5007718;28;20026;-76
2023/12/12 11:45:47;;;;;;;4.88;1.60;;;24.70;74.20;;;;;;5012805;28;20041;-77
2023/12/12 11:48:15;;;;;;;5.20;1.63;;;24.70;74.30;;;;;;5013191;28;20041;-77
2023/12/12 11:50:42;;;;;;;3.63;1.20;;;24.70;74.40;;;;;;5012748;28;20096;-77
2023/12/12 11:53:10;;;;;;;5.78;1.30;;;24.70;74.70;;;;;;5032268;28;20032;-78
2023/12/12 11:55:42;;;;;;;8.50;1.52;;;24.70;74.50;;;;;;5025534;28;20030;-78
2023/12/12 11:58:09;;;;;;;5.90;1.50;;;24.70;74.30;;;;;;5013165;28;20026;-77
2023/12/12 12:00:43;;;;;;;5.47;1.20;;;24.70;74.70;;;;;;5013288;28;20025;-76
2023/12/12 12:03:11;;;;;;;9.70;1.73;;;24.70;74.60;;;;;;5014167;28;20048;-77
2023/12/12 12:05:38;;;;;;;5.07;1.10;;;24.70;74.50;;;;;;5011970;28;20044;-77
2023/12/12 12:08:07;;;;;;;3.35;1.00;;;24.70;74.70;;;;;;5012179;28;20392;-77
2023/12/12 12:10:34;;;;;;;6.63;1.60;;;24.60;74.80;;;;;;5013126;28;20037;-76
2023/12/12 12:13:02;;;;;;;5.28;1.08;;;24.70;74.80;;;;;;5016172;28;20473;-77
2023/12/12 12:15:29;;;;;;;4.15;1.40;;;24.70;74.90;;;;;;5018733;28;20040;-81
2023/12/12 12:17:57;;;;;;;5.32;1.27;;;24.70;74.80;;;;;;5014888;28;20030;-77
2023/12/12 12:20:24;;;;;;;7.70;1.75;;;24.70;74.70;;;;;;5013649;28;20477;-76
2023/12/12 12:22:52;;;;;;;6.50;1.90;;;24.60;74.60;;;;;;5012147;28;20037;-77
2023/12/12 12:25:26;;;;;;;4.68;1.38;;;24.60;74.60;;;;;;5013710;28;20461;-77
2023/12/12 12:27:55;;;;;;;6.15;1.20;;;24.60;74.50;;;;;;5008375;28;20049;-77
2023/12/12 12:30:25;;;;;;;7.90;1.50;;;24.50;74.70;;;;;;5014728;28;20037;-76
2023/12/12 12:33:00;;;;;;;4.00;1.40;;;24.50;74.60;;;;;;5011558;28;20057;-77
2023/12/12 12:35:27;;;;;;;7.20;1.60;;;24.50;74.50;;;;;;5009692;28;20033;-77
2023/12/12 12:37:56;;;;;;;7.00;1.38;;;24.50;74.70;;;;;;5013225;28;20399;-76
2023/12/12 12:40:37;;;;;;;5.00;1.20;;;24.50;74.90;;;;;;5014785;28;20053;-76
2023/12/12 12:43:15;;;;;;;4.82;1.10;;;24.50;75.00;;;;;;5014157;28;20504;-80
2023/12/12 12:45:42;;;;;;;5.05;1.10;;;24.50;75.00;;;;;;5015039;28;20470;-76
2023/12/12 12:48:10;;;;;;;6.82;1.40;;;24.50;74.90;;;;;;5015579;28;20022;-76
2023/12/12 12:50:41;;;;;;;3.38;1.30;;;24.50;74.80;;;;;;5021075;28;20049;-76
2023/12/12 12:53:09;;;;;;;3.20;1.30;;;24.50;75.00;;;;;;5013481;28;20104;-76